Time;durP1;ratioP1;P1;durP2;ratioP2;P2;SDS_P1;SDS_P2;PMS_P1;PMS_P2;Temp;Humidity;BMP_temperature;BMP_pressure;BME280_temperature;BME280_humidity;BME280_pressure;Samples;Min_cycle;Max_cycle;Signal;HPM_P1;HPM_P2
2023/09/15 00:01:31;;;;;;;9.20;2.97;;;14.00;1.00;;;;;;4991325;28;20430;-76
2023/09/15 00:03:56;;;;;;;7.43;3.03;;;13.90;1.00;;;;;;4992309;28;20437;-71
2023/09/15 00:06:22;;;;;;;4.20;2.60;;;14.00;1.00;;;;;;4991535;28;20453;-74
2023/09/15 00:08:47;;;;;;;6.43;2.90;;;14.00;1.00;;;;;;4993086;28;20449;-73
2023/09/15 00:11:19;;;;;;;4.10;2.60;;;14.00;1.00;;;;;;4991976;28;20266;-73
2023/09/15 00:13:45;;;;;;;6.47;3.03;;;14.00;1.00;;;;;;4990599;28;20198;-73
2023/09/15 00:16:11;;;;;;;6.90;2.80;;;13.90;1.00;;;;;;4991267;28;20532;-73
2023/09/15 00:18:37;;;;;;;5.40;2.77;;;13.90;1.00;;;;;;4991940;28;20465;-74
2023/09/15 00:21:05;;;;;;;4.83;2.90;;;13.80;1.00;;;;;;4992595;28;20533;-74
2023/09/15 00:23:31;;;;;;;3.30;2.40;;;13.80;1.00;;;;;;4990280;28;20187;-73
2023/09/15 00:25:59;;;;;;;5.53;2.53;;;13.80;1.00;;;;;;4991164;28;20456;-73
2023/09/15 00:28:25;;;;;;;4.80;2.50;;;13.80;1.00;;;;;;4991803;28;20454;-73
2023/09/15 00:30:50;;;;;;;9.40;3.13;;;13.80;1.00;;;;;;4991321;28;20545;-73
2023/09/15 00:33:19;;;;;;;3.80;2.10;;;13.80;1.00;;;;;;4992212;28;20195;-73
2023/09/15 00:35:47;;;;;;;4.27;2.70;;;13.70;1.00;;;;;;4984474;28;20238;-73
2023/09/15 00:38:13;;;;;;;4.77;2.60;;;13.70;1.00;;;;;;4991721;28;20462;-73
2023/09/15 00:40:39;;;;;;;6.43;2.43;;;13.60;1.00;;;;;;4973800;28;20859;-73
2023/09/15 00:43:04;;;;;;;4.60;2.50;;;13.50;1.00;;;;;;4992165;28;20433;-73
2023/09/15 00:45:30;;;;;;;3.30;2.50;;;13.50;1.00;;;;;;4991747;28;20454;-74
2023/09/15 00:47:57;;;;;;;6.23;2.90;;;13.40;1.00;;;;;;4992184;28;20191;-73
2023/09/15 00:50:29;;;;;;;5.03;2.80;;;13.30;1.00;;;;;;4990727;28;20187;-72
2023/09/15 00:53:02;;;;;;;3.73;2.80;;;13.20;1.00;;;;;;4990942;28;20473;-73
2023/09/15 00:55:29;;;;;;;5.90;2.60;;;14.00;1.00;;;;;;4990633;28;20489;-72
2023/09/15 00:57:56;;;;;;;3.97;2.47;;;13.20;1.00;;;;;;4986726;28;20442;-73
2023/09/15 01:00:22;;;;;;;5.73;2.67;;;13.30;1.00;;;;;;4990526;28;20852;-71
2023/09/15 01:02:49;;;;;;;8.43;2.80;;;13.30;1.00;;;;;;4984396;28;20812;-73
2023/09/15 01:05:22;;;;;;;7.33;3.03;;;13.30;1.00;;;;;;4989583;28;20889;-73
2023/09/15 01:07:52;;;;;;;4.90;2.90;;;13.30;1.00;;;;;;4991181;28;20560;-73
2023/09/15 01:10:21;;;;;;;7.00;2.80;;;13.50;1.00;;;;;;4990446;28;20519;-73
2023/09/15 01:12:48;;;;;;;6.10;2.67;;;13.40;1.00;;;;;;4989668;28;20995;-75
2023/09/15 01:15:16;;;;;;;4.47;2.83;;;13.40;1.00;;;;;;4991551;28;20470;-73
2023/09/15 01:18:15;;;;;;;4.43;2.20;;;13.50;1.00;;;;;;4989747;28;20446;-72
2023/09/15 01:20:40;;;;;;;3.80;2.60;;;13.50;1.00;;;;;;4971617;28;20438;-71
2023/09/15 01:24:00;;;;;;;8.40;2.63;;;13.40;1.00;;;;;;4990543;28;20430;-72
2023/09/15 01:26:51;;;;;;;4.53;2.67;;;13.30;1.00;;;;;;4901061;29;20828;-72
2023/09/15 01:29:44;;;;;;;16.33;3.10;;;13.20;1.00;;;;;;4987653;28;20520;-73
2023/09/15 01:32:12;;;;;;;4.73;2.77;;;13.20;1.00;;;;;;4985966;28;20940;-72
2023/09/15 01:34:38;;;;;;;8.50;2.93;;;13.20;1.00;;;;;;4990556;28;20442;-70
2023/09/15 01:37:04;;;;;;;4.63;2.67;;;13.10;1.00;;;;;;4990176;28;20761;-73
2023/09/15 01:39:30;;;;;;;5.73;2.60;;;13.10;1.00;;;;;;4990579;28;20835;-74
2023/09/15 01:42:00;;;;;;;5.93;3.07;;;13.10;1.00;;;;;;4990439;28;20438;-72
2023/09/15 01:44:26;;;;;;;5.03;2.43;;;13.10;1.00;;;;;;4972917;28;20669;-73
2023/09/15 01:46:51;;;;;;;6.60;2.90;;;13.10;1.00;;;;;;4991167;28;20458;-73
2023/09/15 01:49:21;;;;;;;3.10;2.27;;;13.10;1.00;;;;;;4990726;28;20557;-73
2023/09/15 01:51:48;;;;;;;5.00;2.57;;;13.10;1.00;;;;;;4989053;28;20221;-72
2023/09/15 01:54:14;;;;;;;5.47;2.77;;;13.20;1.00;;;;;;4989307;28;20452;-74
2023/09/15 01:56:40;;;;;;;6.67;2.60;;;13.10;1.00;;;;;;4990367;28;20430;-72
2023/09/15 01:59:06;;;;;;;6.47;2.73;;;13.00;1.00;;;;;;4989511;28;20462;-72
2023/09/15 02:01:32;;;;;;;3.80;2.50;;;13.10;1.00;;;;;;4989907;28;20626;-74
2023/09/15 02:03:57;;;;;;;7.93;2.50;;;13.10;1.00;;;;;;4971957;28;20176;-73
2023/09/15 02:06:23;;;;;;;7.73;2.90;;;13.20;1.00;;;;;;4990631;28;20207;-73
2023/09/15 02:08:48;;;;;;;4.10;2.63;;;13.60;1.00;;;;;;4990500;28;20748;-73
2023/09/15 02:11:14;;;;;;;3.77;2.60;;;13.20;1.00;;;;;;4990008;28;20269;-73
2023/09/15 02:13:41;;;;;;;4.63;2.40;;;13.20;1.00;;;;;;4989307;28;20202;-74
2023/09/15 02:16:06;;;;;;;7.40;2.90;;;13.20;1.00;;;;;;4990156;28;20554;-73
2023/09/15 02:18:32;;;;;;;5.27;2.77;;;13.30;1.00;;;;;;4988146;28;20469;-71
2023/09/15 02:20:58;;;;;;;4.10;2.50;;;13.30;1.00;;;;;;4989822;28;20191;-72
2023/09/15 02:23:24;;;;;;;5.80;2.70;;;13.30;1.00;;;;;;4988973;28;20204;-72
2023/09/15 02:25:51;;;;;;;5.20;2.60;;;13.30;1.00;;;;;;4989625;28;20569;-72
2023/09/15 02:28:19;;;;;;;3.17;2.20;;;13.40;1.00;;;;;;4972233;28;20434;-73
2023/09/15 02:30:44;;;;;;;5.13;2.60;;;13.40;1.00;;;;;;4989795;28;20522;-71
2023/09/15 02:33:10;;;;;;;6.20;2.47;;;13.40;1.00;;;;;;4990094;28;20517;-73
2023/09/15 02:35:35;;;;;;;5.87;2.63;;;13.40;1.00;;;;;;4989496;28;20234;-72
2023/09/15 02:38:01;;;;;;;9.23;2.70;;;13.40;1.00;;;;;;4988912;28;20670;-71
2023/09/15 02:40:26;;;;;;;3.67;2.57;;;13.40;1.00;;;;;;4989317;28;20242;-73
2023/09/15 02:42:52;;;;;;;4.30;2.47;;;13.50;1.00;;;;;;4988500;28;20179;-72
2023/09/15 02:45:18;;;;;;;6.13;2.63;;;13.40;1.00;;;;;;4989737;28;20225;-73
2023/09/15 02:47:43;;;;;;;5.10;2.67;;;13.30;1.00;;;;;;4989749;28;20190;-74
2023/09/15 02:50:09;;;;;;;3.10;2.50;;;13.20;1.00;;;;;;4990138;28;20558;-73
2023/09/15 02:52:34;;;;;;;4.17;2.30;;;13.20;1.00;;;;;;4988087;28;20650;-73
2023/09/15 02:55:06;;;;;;;3.90;2.50;;;13.10;1.00;;;;;;4989628;28;20191;-73
2023/09/15 02:57:32;;;;;;;4.33;2.67;;;13.10;1.00;;;;;;4981481;28;20179;-71
2023/09/15 02:59:57;;;;;;;6.30;2.60;;;13.00;1.00;;;;;;4989912;28;20576;-73
2023/09/15 03:02:23;;;;;;;4.63;2.80;;;13.00;1.00;;;;;;4987157;28;20542;-73
2023/09/15 03:04:49;;;;;;;4.10;2.70;;;12.80;1.00;;;;;;4988967;28;20210;-73
2023/09/15 03:07:15;;;;;;;5.10;2.73;;;12.80;1.00;;;;;;4971842;28;20183;-73
2023/09/15 03:09:41;;;;;;;5.43;2.63;;;12.70;1.00;;;;;;4989552;28;20202;-73
2023/09/15 03:12:07;;;;;;;4.53;2.47;;;12.80;1.00;;;;;;4986023;28;20450;-73
2023/09/15 03:14:32;;;;;;;4.97;2.40;;;12.70;1.00;;;;;;4989140;28;20497;-70
2023/09/15 03:16:58;;;;;;;7.30;2.60;;;12.60;1.00;;;;;;4990138;28;20343;-73
2023/09/15 03:19:24;;;;;;;8.90;2.90;;;12.50;1.00;;;;;;4989903;28;20293;-73
2023/09/15 03:21:50;;;;;;;5.27;2.60;;;12.40;1.00;;;;;;4989236;28;20226;-73
2023/09/15 03:24:16;;;;;;;6.03;2.50;;;12.50;1.00;;;;;;4988165;28;20179;-72
2023/09/15 03:26:41;;;;;;;4.10;2.70;;;12.50;1.00;;;;;;4989210;28;20550;-73
2023/09/15 03:29:07;;;;;;;5.33;2.90;;;12.50;1.00;;;;;;4989598;28;20213;-72
2023/09/15 03:31:32;;;;;;;4.60;3.10;;;12.50;1.00;;;;;;4989436;28;20273;-73
2023/09/15 03:33:58;;;;;;;4.13;2.57;;;12.40;1.00;;;;;;4981472;28;20185;-73
2023/09/15 03:36:26;;;;;;;5.00;2.83;;;12.40;1.00;;;;;;4989361;28;20206;-71
2023/09/15 03:38:52;;;;;;;3.33;2.80;;;12.30;1.00;;;;;;4988538;28;20198;-73
2023/09/15 03:41:17;;;;;;;5.50;2.50;;;12.20;1.00;;;;;;4988729;28;20465;-72
2023/09/15 03:43:43;;;;;;;3.57;2.37;;;12.20;1.00;;;;;;4989084;28;20186;-73
2023/09/15 03:46:08;;;;;;;3.60;2.70;;;12.20;1.00;;;;;;4988948;28;20213;-73
2023/09/15 03:48:34;;;;;;;4.10;2.60;;;12.20;1.00;;;;;;4989448;28;20222;-72
2023/09/15 03:51:00;;;;;;;4.30;2.90;;;12.10;1.00;;;;;;4989225;28;20184;-73
2023/09/15 03:53:25;;;;;;;5.73;3.00;;;12.00;1.00;;;;;;4988486;28;20215;-73
2023/09/15 03:55:51;;;;;;;6.20;3.03;;;12.00;1.00;;;;;;4988727;28;20561;-73
2023/09/15 03:58:17;;;;;;;8.43;2.83;;;12.00;1.00;;;;;;4989384;28;20265;-72
2023/09/15 04:00:43;;;;;;;15.67;3.00;;;11.90;1.00;;;;;;4988112;28;20171;-70
2023/09/15 04:03:09;;;;;;;5.67;3.03;;;11.90;1.00;;;;;;4987552;28;20418;-73
2023/09/15 04:05:34;;;;;;;4.60;2.67;;;11.90;1.00;;;;;;4988400;28;20884;-72
2023/09/15 04:08:00;;;;;;;3.63;2.47;;;11.90;1.00;;;;;;4988641;28;20190;-74
2023/09/15 04:10:26;;;;;;;4.10;2.70;;;11.90;1.00;;;;;;4988438;28;20234;-72
2023/09/15 04:12:51;;;;;;;4.33;2.70;;;11.90;1.00;;;;;;4988637;28;20237;-72
2023/09/15 04:15:17;;;;;;;4.53;2.47;;;11.90;1.00;;;;;;4992270;28;20203;-73
2023/09/15 04:17:43;;;;;;;4.90;2.77;;;12.00;1.00;;;;;;4990341;28;20198;-72
2023/09/15 04:20:09;;;;;;;8.30;3.30;;;12.00;1.00;;;;;;4992777;28;20230;-74
2023/09/15 04:22:39;;;;;;;5.53;3.00;;;12.10;1.00;;;;;;4987823;28;20193;-74
2023/09/15 04:25:06;;;;;;;5.63;3.17;;;12.00;1.00;;;;;;4985942;28;20449;-76
2023/09/15 04:27:32;;;;;;;6.70;2.80;;;12.00;1.00;;;;;;4990596;28;21140;-76
2023/09/15 04:29:58;;;;;;;5.20;2.70;;;12.00;1.00;;;;;;4988781;28;20505;-77
2023/09/15 04:32:24;;;;;;;7.10;2.83;;;12.00;1.00;;;;;;4989627;28;20446;-76
2023/09/15 04:34:51;;;;;;;5.83;2.40;;;12.00;1.00;;;;;;4990227;28;20198;-75
2023/09/15 04:37:17;;;;;;;3.53;2.57;;;12.00;1.00;;;;;;4990190;28;20183;-75
2023/09/15 04:39:43;;;;;;;5.17;2.37;;;12.10;1.00;;;;;;4990111;28;20494;-74
2023/09/15 04:42:12;;;;;;;5.20;2.77;;;12.10;1.00;;;;;;4990249;28;20868;-76
2023/09/15 04:44:37;;;;;;;4.80;2.50;;;12.10;1.00;;;;;;4986920;28;20199;-75
2023/09/15 04:47:03;;;;;;;6.10;2.73;;;12.10;1.00;;;;;;4989362;28;20514;-77
2023/09/15 04:49:29;;;;;;;4.47;3.00;;;12.10;1.00;;;;;;4990636;28;20573;-75
2023/09/15 04:51:54;;;;;;;5.10;2.40;;;12.10;1.00;;;;;;4988760;28;20199;-74
2023/09/15 04:54:20;;;;;;;7.20;2.83;;;12.00;1.00;;;;;;4989433;28;20210;-76
2023/09/15 04:56:46;;;;;;;4.43;2.67;;;12.00;1.00;;;;;;4989804;28;20671;-75
2023/09/15 04:59:18;;;;;;;7.03;2.90;;;12.00;1.00;;;;;;4989524;28;20214;-75
2023/09/15 05:01:44;;;;;;;4.60;2.80;;;12.00;1.00;;;;;;4986648;28;20256;-75
2023/09/15 05:04:10;;;;;;;8.60;2.90;;;12.00;1.00;;;;;;4988962;28;20434;-74
2023/09/15 05:06:37;;;;;;;5.67;2.70;;;12.00;1.00;;;;;;4990585;28;20439;-76
2023/09/15 05:09:05;;;;;;;6.93;2.60;;;12.00;1.00;;;;;;4987921;28;20438;-76
2023/09/15 05:11:31;;;;;;;8.00;2.90;;;12.10;1.00;;;;;;4982551;28;21240;-76
2023/09/15 05:13:57;;;;;;;6.00;2.90;;;12.10;1.00;;;;;;4972166;28;20477;-74
2023/09/15 05:16:23;;;;;;;4.60;2.70;;;12.10;1.00;;;;;;4990266;28;20620;-75
2023/09/15 05:18:49;;;;;;;4.37;2.43;;;12.00;1.00;;;;;;4988240;28;20234;-74
2023/09/15 05:21:14;;;;;;;4.13;3.20;;;12.10;1.00;;;;;;4988059;28;20462;-74
2023/09/15 05:23:40;;;;;;;5.10;3.10;;;12.10;1.00;;;;;;4987393;28;20521;-75
2023/09/15 05:26:07;;;;;;;5.13;2.73;;;12.10;1.00;;;;;;4971292;28;20273;-74
2023/09/15 05:28:32;;;;;;;5.27;3.07;;;12.10;1.00;;;;;;4989634;28;20206;-75
2023/09/15 05:30:59;;;;;;;6.70;2.70;;;12.20;1.00;;;;;;4983525;28;20446;-75
2023/09/15 05:33:27;;;;;;;5.93;3.50;;;12.30;1.00;;;;;;4988168;28;20196;-75
2023/09/15 05:35:57;;;;;;;8.97;3.00;;;12.30;1.00;;;;;;4988951;28;20462;-74
2023/09/15 05:38:26;;;;;;;5.53;3.23;;;12.40;1.00;;;;;;4988330;28;20469;-76
2023/09/15 05:40:52;;;;;;;6.73;2.90;;;12.50;1.00;;;;;;4968996;28;20471;-74
2023/09/15 05:43:18;;;;;;;7.90;3.40;;;12.50;1.00;;;;;;4988414;28;21281;-76
2023/09/15 05:45:47;;;;;;;4.53;3.00;;;12.70;1.00;;;;;;4989980;28;20203;-76
2023/09/15 05:48:22;;;;;;;5.53;3.20;;;12.80;1.00;;;;;;4990011;28;20474;-74
2023/09/15 05:50:49;;;;;;;7.40;3.10;;;12.90;1.00;;;;;;4986778;28;20442;-73
2023/09/15 05:53:14;;;;;;;4.03;2.87;;;13.00;1.00;;;;;;4985040;28;20774;-75
2023/09/15 05:55:40;;;;;;;6.93;3.23;;;13.10;1.00;;;;;;4985581;28;20461;-71
2023/09/15 05:58:05;;;;;;;9.33;4.70;;;13.10;1.00;;;;;;4985614;28;20271;-75
2023/09/15 06:00:31;;;;;;;9.00;6.13;;;13.30;1.00;;;;;;4987527;28;20604;-77
2023/09/15 06:02:56;;;;;;;6.67;4.30;;;13.40;1.00;;;;;;4985071;28;20226;-76
2023/09/15 06:05:24;;;;;;;9.53;4.00;;;13.50;1.00;;;;;;4990423;28;20211;-74
2023/09/15 06:07:53;;;;;;;7.27;4.07;;;13.50;1.00;;;;;;4988768;28;20191;-73
2023/09/15 06:10:19;;;;;;;11.83;4.30;;;13.70;1.00;;;;;;4994061;28;20801;-76
2023/09/15 06:12:48;;;;;;;8.33;3.20;;;13.90;1.00;;;;;;4993358;28;20442;-76
2023/09/15 06:15:14;;;;;;;12.47;3.83;;;14.00;1.00;;;;;;4988108;28;20458;-75
2023/09/15 06:17:39;;;;;;;5.60;4.00;;;14.20;1.00;;;;;;4991236;28;20443;-75
2023/09/15 06:20:05;;;;;;;8.63;3.40;;;14.80;1.00;;;;;;4973103;28;20215;-77
2023/09/15 06:22:32;;;;;;;8.33;4.43;;;15.60;1.00;;;;;;4990817;28;20271;-76
2023/09/15 06:24:57;;;;;;;13.00;5.20;;;16.30;1.00;;;;;;4991593;28;20221;-77
2023/09/15 06:27:23;;;;;;;8.47;5.10;;;16.80;1.00;;;;;;4990861;28;20426;-76
2023/09/15 06:29:48;;;;;;;10.50;5.17;;;17.40;1.00;;;;;;4990930;28;20278;-75
2023/09/15 06:32:14;;;;;;;10.00;6.27;;;18.10;1.00;;;;;;4990017;28;20266;-78
2023/09/15 06:34:40;;;;;;;7.27;5.10;;;18.40;1.00;;;;;;4989806;28;20289;-75
2023/09/15 06:37:06;;;;;;;10.73;5.27;;;18.90;1.00;;;;;;4988996;28;20679;-74
2023/09/15 06:39:34;;;;;;;13.43;4.90;;;18.90;1.00;;;;;;4990586;28;20569;-74
2023/09/15 06:41:59;;;;;;;7.50;4.67;;;18.70;1.00;;;;;;4990396;28;20472;-75
2023/09/15 06:44:25;;;;;;;9.57;5.27;;;17.80;1.00;;;;;;4989273;28;20458;-77
2023/09/15 06:46:50;;;;;;;9.20;5.57;;;17.70;1.00;;;;;;4990185;28;20220;-74
2023/09/15 06:49:21;;;;;;;11.57;5.90;;;18.30;1.00;;;;;;4991345;28;20620;-74
2023/09/15 06:51:47;;;;;;;10.97;5.73;;;17.70;1.00;;;;;;4989935;28;20562;-72
2023/09/15 06:54:13;;;;;;;13.50;5.87;;;18.10;1.00;;;;;;4970315;28;20442;-75
2023/09/15 06:56:38;;;;;;;13.57;6.00;;;18.10;1.00;;;;;;4985939;28;20457;-74
2023/09/15 06:59:04;;;;;;;8.77;5.93;;;17.90;1.00;;;;;;4987281;28;20213;-74
2023/09/15 07:01:30;;;;;;;9.15;5.63;;;17.50;1.00;;;;;;4985054;28;20447;-76
2023/09/15 07:03:55;;;;;;;9.10;5.90;;;17.40;1.00;;;;;;4984086;28;20186;-74
2023/09/15 07:06:21;;;;;;;10.20;6.43;;;17.30;1.00;;;;;;4983073;28;20207;-72
2023/09/15 07:08:49;;;;;;;10.10;6.33;;;17.30;1.00;;;;;;4986315;28;20206;-72
2023/09/15 07:11:15;;;;;;;11.53;6.17;;;17.50;1.00;;;;;;4984829;28;20175;-73
2023/09/15 07:13:40;;;;;;;11.40;6.10;;;18.30;1.00;;;;;;4985586;28;20924;-73
2023/09/15 07:16:06;;;;;;;11.03;5.40;;;19.30;1.00;;;;;;4983139;28;20445;-75
2023/09/15 07:18:31;;;;;;;11.23;5.70;;;20.30;1.00;;;;;;4985619;28;20826;-72
2023/09/15 07:20:57;;;;;;;9.60;5.60;;;21.30;1.00;;;;;;4983954;28;20191;-72
2023/09/15 07:23:22;;;;;;;10.07;5.50;;;21.90;1.00;;;;;;4982807;28;20179;-73
2023/09/15 07:25:48;;;;;;;9.80;5.77;;;22.20;1.00;;;;;;4985802;28;20198;-73
2023/09/15 07:28:14;;;;;;;8.60;5.67;;;22.50;1.00;;;;;;4984799;28;20575;-72
2023/09/15 07:30:41;;;;;;;7.57;5.10;;;23.10;1.00;;;;;;4985953;28;20205;-72
2023/09/15 07:33:07;;;;;;;12.40;6.13;;;23.30;1.00;;;;;;4984776;28;20190;-75
2023/09/15 07:35:34;;;;;;;12.50;5.60;;;23.60;1.00;;;;;;4982640;28;20678;-74
2023/09/15 07:37:59;;;;;;;13.73;6.07;;;23.80;1.00;;;;;;4986564;28;20276;-74
2023/09/15 07:40:25;;;;;;;10.07;5.57;;;24.20;1.00;;;;;;4989405;28;20238;-74
2023/09/15 07:42:50;;;;;;;10.77;5.63;;;24.70;1.00;;;;;;4989403;28;20189;-73
2023/09/15 07:45:16;;;;;;;8.43;5.00;;;25.20;1.00;;;;;;4989039;28;20206;-74
2023/09/15 07:47:42;;;;;;;7.57;5.20;;;25.50;1.00;;;;;;4990549;28;20645;-75
2023/09/15 07:50:07;;;;;;;11.30;5.78;;;26.00;1.00;;;;;;4993129;28;20203;-75
2023/09/15 07:52:34;;;;;;;12.27;5.88;;;26.30;1.00;;;;;;4992919;28;20191;-73
2023/09/15 07:54:59;;;;;;;13.05;5.53;;;26.60;1.00;;;;;;4992767;28;20210;-72
2023/09/15 07:57:25;;;;;;;12.90;5.90;;;27.20;1.00;;;;;;4993278;28;20186;-72
2023/09/15 07:59:50;;;;;;;13.73;5.97;;;27.10;1.00;;;;;;4993293;28;20210;-75
2023/09/15 08:02:16;;;;;;;8.73;5.35;;;27.10;1.00;;;;;;4992507;28;20175;-74
2023/09/15 08:04:42;;;;;;;13.48;5.80;;;27.60;1.00;;;;;;4992488;28;20620;-73
2023/09/15 08:07:08;;;;;;;10.38;5.93;;;27.90;1.00;;;;;;4992819;28;20679;-73
2023/09/15 08:09:33;;;;;;;12.95;5.68;;;27.90;1.00;;;;;;4993143;28;20213;-74
2023/09/15 08:12:03;;;;;;;8.50;6.15;;;28.00;1.00;;;;;;4992325;28;20195;-76
2023/09/15 08:14:28;;;;;;;10.73;5.78;;;28.60;1.00;;;;;;4993354;28;20656;-72
2023/09/15 08:16:54;;;;;;;9.02;6.13;;;28.50;1.00;;;;;;4992933;28;20178;-74
2023/09/15 08:19:22;;;;;;;10.98;6.25;;;29.30;1.00;;;;;;4992559;28;20218;-74
2023/09/15 08:21:48;;;;;;;9.18;5.78;;;29.80;1.00;;;;;;4992253;28;20200;-75
2023/09/15 08:24:13;;;;;;;8.48;5.82;;;30.60;1.00;;;;;;4992181;28;20284;-74
2023/09/15 08:26:39;;;;;;;9.68;6.10;;;30.50;1.00;;;;;;4992806;28;20191;-74
2023/09/15 08:29:05;;;;;;;12.00;6.57;;;30.50;1.00;;;;;;4992418;28;20205;-74
2023/09/15 08:31:31;;;;;;;10.05;6.18;;;30.20;1.00;;;;;;4992620;28;20190;-74
2023/09/15 08:33:57;;;;;;;7.47;5.85;;;30.50;1.00;;;;;;4989425;28;20325;-74
2023/09/15 08:36:23;;;;;;;10.77;6.05;;;31.00;1.00;;;;;;4991863;28;20293;-74
2023/09/15 08:38:48;;;;;;;13.88;6.32;;;31.30;1.00;;;;;;4992646;28;20703;-74
2023/09/15 08:41:42;;;;;;;10.48;6.85;;;31.50;1.00;;;;;;4992567;28;20186;-74
2023/09/15 08:44:15;;;;;;;10.85;6.10;;;32.20;1.00;;;;;;4992135;28;20182;-73
2023/09/15 08:46:42;;;;;;;12.02;6.13;;;32.60;1.00;;;;;;4993037;28;20182;-74
2023/09/15 08:49:08;;;;;;;9.48;6.05;;;32.80;1.00;;;;;;4992670;28;20727;-74
2023/09/15 08:51:34;;;;;;;9.57;6.15;;;33.10;1.00;;;;;;4992366;28;20664;-74
2023/09/15 08:54:01;;;;;;;9.60;5.50;;;33.10;1.00;;;;;;4992677;28;20565;-73
2023/09/15 08:56:27;;;;;;;12.10;5.80;;;33.00;1.00;;;;;;4991527;28;20206;-77
2023/09/15 08:58:53;;;;;;;9.40;5.88;;;33.30;1.00;;;;;;4992129;28;20213;-76
2023/09/15 09:01:19;;;;;;;8.45;5.50;;;32.90;1.00;;;;;;4974708;28;20178;-74
2023/09/15 09:03:45;;;;;;;9.82;6.63;;;33.50;1.00;;;;;;4986922;28;20688;-77
2023/09/15 09:06:12;;;;;;;13.90;5.85;;;34.00;1.00;;;;;;4991861;28;20210;-74
2023/09/15 09:08:40;;;;;;;10.65;5.65;;;34.00;1.00;;;;;;4992660;28;20183;-75
2023/09/15 09:11:07;;;;;;;9.55;5.65;;;34.40;1.00;;;;;;4991937;28;20182;-75
2023/09/15 09:13:33;;;;;;;8.27;5.72;;;35.00;1.00;;;;;;4992225;28;20187;-74
2023/09/15 09:15:59;;;;;;;9.68;5.63;;;35.10;1.00;;;;;;4992190;28;20288;-76
2023/09/15 09:18:25;;;;;;;9.93;5.43;;;35.20;1.00;;;;;;4991757;28;20234;-75
2023/09/15 09:20:51;;;;;;;12.80;6.18;;;35.10;1.00;;;;;;4992218;28;20593;-75
2023/09/15 09:23:20;;;;;;;9.00;5.22;;;35.60;1.00;;;;;;4992117;28;20225;-75
2023/09/15 09:25:46;;;;;;;8.23;5.63;;;36.00;1.00;;;;;;4991519;28;20204;-75
2023/09/15 09:28:13;;;;;;;7.32;5.40;;;36.30;1.00;;;;;;4991842;28;20183;-74
2023/09/15 09:30:39;;;;;;;9.60;5.70;;;36.20;1.00;;;;;;4991787;28;20182;-75
2023/09/15 09:33:05;;;;;;;8.75;5.32;;;36.10;1.00;;;;;;4991916;28;20190;-78
2023/09/15 09:35:31;;;;;;;8.73;5.75;;;36.40;1.00;;;;;;4991522;28;20203;-77
2023/09/15 09:38:00;;;;;;;8.52;5.72;;;36.70;1.00;;;;;;4991981;28;20190;-74
2023/09/15 09:40:26;;;;;;;8.75;5.50;;;36.70;1.00;;;;;;4991545;28;20193;-75
2023/09/15 09:42:53;;;;;;;10.35;5.43;;;36.40;1.00;;;;;;4991723;28;20198;-76
2023/09/15 09:45:26;;;;;;;11.07;5.38;;;36.40;1.00;;;;;;4989526;28;20240;-74
2023/09/15 09:47:53;;;;;;;11.13;5.85;;;36.50;1.00;;;;;;4991920;28;20588;-75
2023/09/15 09:50:21;;;;;;;14.88;5.25;;;36.80;1.00;;;;;;4991588;28;20592;-74
2023/09/15 09:52:46;;;;;;;10.20;5.90;;;37.10;1.00;;;;;;4991408;28;20226;-77
2023/09/15 09:55:12;;;;;;;10.40;5.60;;;37.60;1.00;;;;;;4990940;28;20283;-76
2023/09/15 09:57:39;;;;;;;8.85;5.15;;;37.90;1.00;;;;;;4991587;28;20185;-78
2023/09/15 10:00:09;;;;;;;11.50;4.47;;;38.20;1.00;;;;;;4991462;28;20217;-76
2023/09/15 10:02:36;;;;;;;7.30;4.40;;;38.70;1.00;;;;;;4983509;28;20171;-74
2023/09/15 10:05:03;;;;;;;10.18;5.50;;;38.80;1.00;;;;;;4991293;28;20198;-75
2023/09/15 10:07:29;;;;;;;9.77;4.80;;;38.60;1.00;;;;;;4990878;28;20186;-75
2023/09/15 10:09:55;;;;;;;9.52;4.68;;;38.80;1.00;;;;;;4991429;28;20190;-76
2023/09/15 10:12:23;;;;;;;8.48;4.60;;;39.50;1.00;;;;;;4989862;28;20557;-76
2023/09/15 10:14:50;;;;;;;9.70;4.82;;;39.30;1.00;;;;;;4990978;28;20205;-77
2023/09/15 10:17:18;;;;;;;9.55;5.35;;;39.20;1.00;;;;;;4990320;28;20191;-79
2023/09/15 10:19:46;;;;;;;7.82;4.38;;;39.30;1.00;;;;;;4989785;28;20218;-75
2023/09/15 10:22:13;;;;;;;7.65;4.45;;;39.50;1.00;;;;;;4990682;28;20206;-73
2023/09/15 10:24:43;;;;;;;8.98;4.57;;;40.10;1.00;;;;;;4990362;28;20673;-74
2023/09/15 10:27:09;;;;;;;6.68;4.53;;;40.30;1.00;;;;;;4991087;28;20257;-75
2023/09/15 10:29:37;;;;;;;7.93;4.55;;;40.50;1.00;;;;;;4990627;28;20210;-75
2023/09/15 10:32:03;;;;;;;9.35;4.30;;;40.90;1.00;;;;;;4990803;28;20191;-75
2023/09/15 10:34:31;;;;;;;8.20;4.57;;;41.50;1.00;;;;;;4989645;28;20202;-74
2023/09/15 10:37:01;;;;;;;7.45;4.35;;;41.50;1.00;;;;;;4991018;28;20266;-75
2023/09/15 10:39:38;;;;;;;6.85;4.53;;;41.90;1.00;;;;;;4990538;28;20727;-75
2023/09/15 10:42:13;;;;;;;6.05;4.13;;;41.90;1.00;;;;;;4990331;28;20270;-75
2023/09/15 10:44:40;;;;;;;8.60;4.63;;;41.70;1.00;;;;;;4981753;28;20198;-75
2023/09/15 10:47:20;;;;;;;8.15;3.95;;;41.80;1.00;;;;;;4990071;28;20250;-77
2023/09/15 10:49:50;;;;;;;5.50;4.00;;;42.20;1.00;;;;;;4990371;28;20186;-75
2023/09/15 10:52:16;;;;;;;6.68;3.70;;;42.30;1.00;;;;;;4989847;28;20182;-73
2023/09/15 10:54:41;;;;;;;5.10;3.50;;;43.40;1.00;;;;;;4989543;28;20268;-75
2023/09/15 10:57:09;;;;;;;10.88;3.40;;;43.50;1.00;;;;;;4989618;28;20190;-76
2023/09/15 10:59:35;;;;;;;4.65;3.53;;;43.90;1.00;;;;;;4988821;28;20312;-75
2023/09/15 11:02:02;;;;;;;11.18;3.53;;;43.60;1.00;;;;;;4989759;28;20214;-75
2023/09/15 11:04:28;;;;;;;5.60;3.75;;;44.10;1.00;;;;;;4986876;28;20198;-75
2023/09/15 11:06:54;;;;;;;6.82;2.60;;;43.90;1.00;;;;;;4989412;28;20209;-76
2023/09/15 11:09:21;;;;;;;4.07;2.72;;;43.90;1.00;;;;;;4989227;28;20178;-75
2023/09/15 11:11:49;;;;;;;3.60;2.70;;;44.10;1.00;;;;;;4989452;28;20265;-75
2023/09/15 11:14:16;;;;;;;4.22;2.70;;;43.20;1.00;;;;;;4989003;28;20205;-74
2023/09/15 11:16:50;;;;;;;4.78;2.83;;;43.20;1.00;;;;;;4982019;28;20210;-75
2023/09/15 11:19:17;;;;;;;4.05;2.60;;;43.60;1.00;;;;;;4989959;28;20700;-75
2023/09/15 11:21:45;;;;;;;6.75;3.00;;;43.80;1.00;;;;;;4988204;28;20588;-75
2023/09/15 11:24:11;;;;;;;4.32;2.80;;;;;;;;;;4972984;28;20225;-78
2023/09/15 11:26:47;;;;;;;4.20;2.90;;;44.00;1.00;;;;;;4993057;28;21311;-76
2023/09/15 11:29:26;;;;;;;3.55;2.85;;;43.70;1.00;;;;;;4992048;28;20236;-75
2023/09/15 11:31:53;;;;;;;4.10;2.58;;;43.90;1.00;;;;;;4988075;28;20186;-75
2023/09/15 11:34:20;;;;;;;4.28;2.47;;;43.80;1.00;;;;;;4992529;28;20637;-75
2023/09/15 11:36:45;;;;;;;3.22;2.70;;;43.70;1.00;;;;;;4993173;28;20750;-76
2023/09/15 11:39:13;;;;;;;4.43;2.60;;;43.20;1.00;;;;;;4989436;28;20214;-75
2023/09/15 11:41:40;;;;;;;4.80;2.60;;;43.10;1.00;;;;;;4993318;28;20186;-75
2023/09/15 11:44:08;;;;;;;3.40;2.67;;;43.20;1.00;;;;;;4994117;28;20174;-76
2023/09/15 11:46:37;;;;;;;4.43;3.00;;;43.20;1.00;;;;;;4991524;28;20435;-75
2023/09/15 11:49:03;;;;;;;5.05;2.70;;;44.50;1.00;;;;;;4993369;28;20187;-75
2023/09/15 11:51:29;;;;;;;3.35;2.55;;;44.10;1.00;;;;;;4991993;28;20552;-75
2023/09/15 11:53:58;;;;;;;6.68;2.90;;;43.80;1.00;;;;;;4992398;28;20270;-75
2023/09/15 11:56:24;;;;;;;4.45;2.70;;;43.90;1.00;;;;;;4989839;28;20198;-75
2023/09/15 11:58:50;;;;;;;4.20;2.88;;;43.90;1.00;;;;;;4994254;28;20692;-75
2023/09/15 12:01:19;;;;;;;4.47;3.17;;;44.20;1.00;;;;;;4992645;28;20183;-71
2023/09/15 12:03:49;;;;;;;6.97;2.95;;;44.40;1.00;;;;;;4991567;28;20174;-71
2023/09/15 12:06:18;;;;;;;6.65;2.78;;;45.10;1.00;;;;;;4994045;28;20198;-71
2023/09/15 12:08:49;;;;;;;3.50;2.70;;;45.00;1.00;;;;;;4993018;28;20212;-70
2023/09/15 12:11:15;;;;;;;4.22;2.85;;;45.10;1.00;;;;;;4989974;28;20664;-70
2023/09/15 12:13:41;;;;;;;3.42;2.80;;;45.30;1.00;;;;;;4993508;28;20198;-71
2023/09/15 12:16:14;;;;;;;3.80;3.00;;;44.80;1.00;;;;;;4993543;28;20576;-70
2023/09/15 12:18:40;;;;;;;3.95;2.78;;;44.20;1.00;;;;;;4992273;28;20206;-70
2023/09/15 12:21:14;;;;;;;4.00;3.10;;;43.10;1.00;;;;;;4993903;28;20186;-71
2023/09/15 12:23:40;;;;;;;3.97;2.90;;;43.30;1.00;;;;;;4992015;28;20230;-71
2023/09/15 12:26:06;;;;;;;3.65;2.85;;;44.20;1.00;;;;;;4993936;28;20673;-71
2023/09/15 12:28:32;;;;;;;5.00;3.00;;;44.70;1.00;;;;;;4993121;28;20193;-76
2023/09/15 12:30:59;;;;;;;5.63;2.92;;;44.40;1.00;;;;;;4993749;28;20668;-75
2023/09/15 12:33:28;;;;;;;6.35;2.53;;;44.40;1.00;;;;;;4992655;28;20198;-76
2023/09/15 12:35:53;;;;;;;3.90;2.80;;;45.40;1.00;;;;;;4989306;28;20210;-76
2023/09/15 12:38:19;;;;;;;4.68;3.08;;;45.60;1.00;;;;;;4991603;28;20190;-75
2023/09/15 12:40:45;;;;;;;4.60;3.03;;;44.60;1.00;;;;;;4990109;28;20210;-75
2023/09/15 12:43:11;;;;;;;4.85;3.10;;;43.70;1.00;;;;;;4990807;28;20665;-76
2023/09/15 12:45:37;;;;;;;4.28;3.30;;;43.20;1.00;;;;;;4989444;28;20202;-74
2023/09/15 12:48:03;;;;;;;3.78;3.03;;;43.50;1.00;;;;;;4989912;28;20545;-74
2023/09/15 12:50:28;;;;;;;4.22;3.00;;;43.60;1.00;;;;;;4989620;28;20182;-75
2023/09/15 12:52:54;;;;;;;3.60;3.10;;;43.90;1.00;;;;;;4987050;28;20195;-76
2023/09/15 12:55:21;;;;;;;5.03;3.10;;;43.60;1.00;;;;;;4987571;28;20623;-74